sensor_id;sensor_type;location;lat;lon;timestamp;P1;durP1;ratioP1;P2;durP2;ratioP2
25824;SDS011;13658;44.534;18.694;2023-04-06T00:01:39;72.07;;;37.55;;
25824;SDS011;13658;44.534;18.694;2023-04-06T00:04:05;64.22;;;35.30;;
25824;SDS011;13658;44.534;18.694;2023-04-06T00:06:32;51.45;;;29.52;;
25824;SDS011;13658;44.534;18.694;2023-04-06T00:08:59;59.42;;;33.60;;
25824;SDS011;13658;44.534;18.694;2023-04-06T00:11:25;58.15;;;34.00;;
25824;SDS011;13658;44.534;18.694;2023-04-06T00:13:52;63.08;;;35.70;;
25824;SDS011;13658;44.534;18.694;2023-04-06T00:16:18;65.50;;;37.33;;
25824;SDS011;13658;44.534;18.694;2023-04-06T00:18:45;66.55;;;36.50;;
25824;SDS011;13658;44.534;18.694;2023-04-06T00:21:11;66.85;;;37.25;;
25824;SDS011;13658;44.534;18.694;2023-04-06T00:23:38;60.03;;;34.50;;
25824;SDS011;13658;44.534;18.694;2023-04-06T00:26:04;70.50;;;37.60;;
25824;SDS011;13658;44.534;18.694;2023-04-06T00:28:30;66.80;;;37.03;;
25824;SDS011;13658;44.534;18.694;2023-04-06T00:30:56;68.28;;;38.33;;
25824;SDS011;13658;44.534;18.694;2023-04-06T00:33:22;66.90;;;38.58;;
25824;SDS011;13658;44.534;18.694;2023-04-06T00:35:49;70.30;;;38.83;;
25824;SDS011;13658;44.534;18.694;2023-04-06T00:38:15;64.28;;;37.80;;
25824;SDS011;13658;44.534;18.694;2023-04-06T00:40:42;58.78;;;34.28;;
25824;SDS011;13658;44.534;18.694;2023-04-06T00:43:11;68.93;;;37.83;;
25824;SDS011;13658;44.534;18.694;2023-04-06T00:45:38;63.78;;;36.85;;
25824;SDS011;13658;44.534;18.694;2023-04-06T00:48:05;70.53;;;39.42;;
25824;SDS011;13658;44.534;18.694;2023-04-06T00:50:32;66.10;;;37.58;;
25824;SDS011;13658;44.534;18.694;2023-04-06T00:52:58;68.72;;;38.70;;
25824;SDS011;13658;44.534;18.694;2023-04-06T00:55:26;69.40;;;38.08;;
25824;SDS011;13658;44.534;18.694;2023-04-06T00:57:53;64.75;;;36.30;;
25824;SDS011;13658;44.534;18.694;2023-04-06T01:00:20;61.60;;;35.13;;
25824;SDS011;13658;44.534;18.694;2023-04-06T01:02:50;64.85;;;35.78;;
25824;SDS011;13658;44.534;18.694;2023-04-06T01:05:20;53.60;;;30.55;;
25824;SDS011;13658;44.534;18.694;2023-04-06T01:07:56;63.78;;;35.58;;
25824;SDS011;13658;44.534;18.694;2023-04-06T01:10:26;53.53;;;32.00;;
25824;SDS011;13658;44.534;18.694;2023-04-06T01:13:16;54.95;;;33.03;;
25824;SDS011;13658;44.534;18.694;2023-04-06T01:15:47;57.42;;;32.97;;
25824;SDS011;13658;44.534;18.694;2023-04-06T01:18:25;51.63;;;30.23;;
25824;SDS011;13658;44.534;18.694;2023-04-06T01:20:58;56.35;;;32.42;;
25824;SDS011;13658;44.534;18.694;2023-04-06T01:23:26;52.28;;;32.17;;
25824;SDS011;13658;44.534;18.694;2023-04-06T01:25:52;55.22;;;32.50;;
25824;SDS011;13658;44.534;18.694;2023-04-06T01:28:19;50.58;;;31.27;;
25824;SDS011;13658;44.534;18.694;2023-04-06T01:31:05;51.80;;;30.87;;
25824;SDS011;13658;44.534;18.694;2023-04-06T01:33:47;51.65;;;31.33;;
25824;SDS011;13658;44.534;18.694;2023-04-06T01:36:17;50.92;;;30.58;;
25824;SDS011;13658;44.534;18.694;2023-04-06T01:38:48;54.70;;;32.70;;
25824;SDS011;13658;44.534;18.694;2023-04-06T01:41:17;50.75;;;30.83;;
25824;SDS011;13658;44.534;18.694;2023-04-06T01:43:47;51.75;;;30.55;;
25824;SDS011;13658;44.534;18.694;2023-04-06T01:46:15;54.00;;;31.20;;
25824;SDS011;13658;44.534;18.694;2023-04-06T01:48:43;52.33;;;30.33;;
25824;SDS011;13658;44.534;18.694;2023-04-06T01:51:16;52.38;;;31.40;;
25824;SDS011;13658;44.534;18.694;2023-04-06T01:53:51;51.25;;;31.48;;
25824;SDS011;13658;44.534;18.694;2023-04-06T01:56:20;53.22;;;31.10;;
25824;SDS011;13658;44.534;18.694;2023-04-06T01:58:56;57.28;;;33.22;;
25824;SDS011;13658;44.534;18.694;2023-04-06T02:01:23;54.50;;;32.28;;
25824;SDS011;13658;44.534;18.694;2023-04-06T02:03:54;53.60;;;32.40;;
25824;SDS011;13658;44.534;18.694;2023-04-06T02:06:20;57.78;;;34.30;;
25824;SDS011;13658;44.534;18.694;2023-04-06T02:08:48;55.03;;;32.53;;
25824;SDS011;13658;44.534;18.694;2023-04-06T02:11:14;53.28;;;32.22;;
25824;SDS011;13658;44.534;18.694;2023-04-06T02:13:45;53.10;;;30.52;;
25824;SDS011;13658;44.534;18.694;2023-04-06T02:16:11;57.30;;;32.08;;
25824;SDS011;13658;44.534;18.694;2023-04-06T02:18:37;55.60;;;32.08;;
25824;SDS011;13658;44.534;18.694;2023-04-06T02:21:03;54.20;;;30.92;;
25824;SDS011;13658;44.534;18.694;2023-04-06T02:23:29;51.42;;;30.42;;
25824;SDS011;13658;44.534;18.694;2023-04-06T02:25:56;53.08;;;31.25;;
25824;SDS011;13658;44.534;18.694;2023-04-06T02:28:22;57.63;;;33.55;;
25824;SDS011;13658;44.534;18.694;2023-04-06T02:30:48;57.92;;;32.28;;
25824;SDS011;13658;44.534;18.694;2023-04-06T02:33:15;58.55;;;31.40;;
25824;SDS011;13658;44.534;18.694;2023-04-06T02:35:45;60.17;;;34.28;;
25824;SDS011;13658;44.534;18.694;2023-04-06T02:38:11;57.25;;;31.88;;
25824;SDS011;13658;44.534;18.694;2023-04-06T02:40:37;53.03;;;32.53;;
25824;SDS011;13658;44.534;18.694;2023-04-06T02:43:23;59.13;;;35.55;;
25824;SDS011;13658;44.534;18.694;2023-04-06T02:45:54;51.50;;;32.05;;
25824;SDS011;13658;44.534;18.694;2023-04-06T02:48:22;57.05;;;32.83;;
25824;SDS011;13658;44.534;18.694;2023-04-06T02:50:48;50.22;;;30.90;;
25824;SDS011;13658;44.534;18.694;2023-04-06T02:53:15;52.30;;;31.83;;
25824;SDS011;13658;44.534;18.694;2023-04-06T02:55:41;55.78;;;33.40;;
25824;SDS011;13658;44.534;18.694;2023-04-06T02:58:07;55.00;;;33.60;;
25824;SDS011;13658;44.534;18.694;2023-04-06T03:00:46;52.10;;;30.88;;
25824;SDS011;13658;44.534;18.694;2023-04-06T03:03:12;52.97;;;31.73;;
25824;SDS011;13658;44.534;18.694;2023-04-06T03:05:40;53.78;;;31.35;;
25824;SDS011;13658;44.534;18.694;2023-04-06T03:08:07;52.63;;;31.05;;
25824;SDS011;13658;44.534;18.694;2023-04-06T03:10:52;50.60;;;27.95;;
25824;SDS011;13658;44.534;18.694;2023-04-06T03:13:20;50.72;;;28.23;;
25824;SDS011;13658;44.534;18.694;2023-04-06T03:15:49;49.13;;;28.67;;
25824;SDS011;13658;44.534;18.694;2023-04-06T03:18:20;53.63;;;31.05;;
25824;SDS011;13658;44.534;18.694;2023-04-06T03:20:49;53.47;;;29.90;;
25824;SDS011;13658;44.534;18.694;2023-04-06T03:23:17;53.05;;;30.15;;
25824;SDS011;13658;44.534;18.694;2023-04-06T03:25:46;55.08;;;32.00;;
25824;SDS011;13658;44.534;18.694;2023-04-06T03:28:16;53.72;;;32.03;;
25824;SDS011;13658;44.534;18.694;2023-04-06T03:30:50;52.53;;;30.35;;
25824;SDS011;13658;44.534;18.694;2023-04-06T03:33:22;58.20;;;31.35;;
25824;SDS011;13658;44.534;18.694;2023-04-06T03:35:53;56.15;;;33.10;;
25824;SDS011;13658;44.534;18.694;2023-04-06T03:38:20;60.45;;;34.03;;
25824;SDS011;13658;44.534;18.694;2023-04-06T03:40:46;56.15;;;30.67;;
25824;SDS011;13658;44.534;18.694;2023-04-06T03:43:12;57.75;;;31.15;;
25824;SDS011;13658;44.534;18.694;2023-04-06T03:45:39;62.38;;;36.20;;
25824;SDS011;13658;44.534;18.694;2023-04-06T03:48:06;54.63;;;31.58;;
25824;SDS011;13658;44.534;18.694;2023-04-06T03:50:34;51.85;;;30.45;;
25824;SDS011;13658;44.534;18.694;2023-04-06T03:53:00;56.15;;;32.60;;
25824;SDS011;13658;44.534;18.694;2023-04-06T03:55:28;57.13;;;32.88;;
25824;SDS011;13658;44.534;18.694;2023-04-06T03:57:55;56.47;;;34.72;;
25824;SDS011;13658;44.534;18.694;2023-04-06T04:00:23;59.17;;;34.97;;
25824;SDS011;13658;44.534;18.694;2023-04-06T04:02:50;61.55;;;35.40;;
25824;SDS011;13658;44.534;18.694;2023-04-06T04:05:16;61.80;;;35.38;;
25824;SDS011;13658;44.534;18.694;2023-04-06T04:07:41;59.75;;;34.60;;
25824;SDS011;13658;44.534;18.694;2023-04-06T04:10:09;64.20;;;37.47;;
25824;SDS011;13658;44.534;18.694;2023-04-06T04:12:36;67.28;;;38.80;;
25824;SDS011;13658;44.534;18.694;2023-04-06T04:15:02;65.20;;;35.63;;
25824;SDS011;13658;44.534;18.694;2023-04-06T04:17:31;60.35;;;35.08;;
25824;SDS011;13658;44.534;18.694;2023-04-06T04:19:57;63.00;;;35.67;;
25824;SDS011;13658;44.534;18.694;2023-04-06T04:22:24;63.42;;;35.35;;
25824;SDS011;13658;44.534;18.694;2023-04-06T04:24:50;60.65;;;35.03;;
25824;SDS011;13658;44.534;18.694;2023-04-06T04:27:16;61.22;;;36.03;;
25824;SDS011;13658;44.534;18.694;2023-04-06T04:29:42;66.28;;;36.97;;
25824;SDS011;13658;44.534;18.694;2023-04-06T04:32:11;67.45;;;39.00;;
25824;SDS011;13658;44.534;18.694;2023-04-06T04:34:38;65.65;;;38.13;;
25824;SDS011;13658;44.534;18.694;2023-04-06T04:37:11;64.78;;;37.85;;
25824;SDS011;13658;44.534;18.694;2023-04-06T04:39:50;73.78;;;40.42;;
25824;SDS011;13658;44.534;18.694;2023-04-06T04:42:16;75.07;;;42.17;;
25824;SDS011;13658;44.534;18.694;2023-04-06T04:44:48;74.03;;;42.42;;
25824;SDS011;13658;44.534;18.694;2023-04-06T04:47:20;85.93;;;46.13;;
25824;SDS011;13658;44.534;18.694;2023-04-06T04:49:47;95.03;;;50.15;;
25824;SDS011;13658;44.534;18.694;2023-04-06T04:52:19;88.97;;;49.38;;
25824;SDS011;13658;44.534;18.694;2023-04-06T04:54:56;86.88;;;48.42;;
25824;SDS011;13658;44.534;18.694;2023-04-06T04:57:26;84.72;;;47.33;;
25824;SDS011;13658;44.534;18.694;2023-04-06T04:59:52;82.78;;;46.35;;
25824;SDS011;13658;44.534;18.694;2023-04-06T05:02:18;89.90;;;48.28;;
25824;SDS011;13658;44.534;18.694;2023-04-06T05:05:20;87.75;;;47.65;;
25824;SDS011;13658;44.534;18.694;2023-04-06T05:07:46;85.68;;;46.80;;
25824;SDS011;13658;44.534;18.694;2023-04-06T05:10:23;85.70;;;47.55;;
25824;SDS011;13658;44.534;18.694;2023-04-06T05:12:54;85.75;;;45.60;;
25824;SDS011;13658;44.534;18.694;2023-04-06T05:15:20;87.35;;;49.10;;
25824;SDS011;13658;44.534;18.694;2023-04-06T05:17:50;88.13;;;48.25;;
25824;SDS011;13658;44.534;18.694;2023-04-06T05:20:21;83.57;;;45.88;;
25824;SDS011;13658;44.534;18.694;2023-04-06T05:22:49;85.65;;;46.95;;
25824;SDS011;13658;44.534;18.694;2023-04-06T05:25:15;87.18;;;49.33;;
25824;SDS011;13658;44.534;18.694;2023-04-06T05:27:42;89.57;;;50.03;;
25824;SDS011;13658;44.534;18.694;2023-04-06T05:30:23;94.50;;;49.90;;
25824;SDS011;13658;44.534;18.694;2023-04-06T05:32:51;98.60;;;50.45;;
25824;SDS011;13658;44.534;18.694;2023-04-06T05:35:17;101.03;;;53.50;;
25824;SDS011;13658;44.534;18.694;2023-04-06T05:37:47;99.28;;;54.38;;
25824;SDS011;13658;44.534;18.694;2023-04-06T05:40:13;83.72;;;46.83;;
25824;SDS011;13658;44.534;18.694;2023-04-06T05:42:41;82.88;;;46.88;;
25824;SDS011;13658;44.534;18.694;2023-04-06T05:45:09;81.93;;;45.35;;
25824;SDS011;13658;44.534;18.694;2023-04-06T05:47:38;85.72;;;47.20;;
25824;SDS011;13658;44.534;18.694;2023-04-06T05:50:16;75.78;;;44.28;;
25824;SDS011;13658;44.534;18.694;2023-04-06T05:52:42;74.35;;;42.22;;
25824;SDS011;13658;44.534;18.694;2023-04-06T05:55:12;77.75;;;41.05;;
25824;SDS011;13658;44.534;18.694;2023-04-06T05:57:41;74.22;;;39.97;;
25824;SDS011;13658;44.534;18.694;2023-04-06T06:00:07;70.82;;;39.38;;
25824;SDS011;13658;44.534;18.694;2023-04-06T06:02:49;66.00;;;38.78;;
25824;SDS011;13658;44.534;18.694;2023-04-06T06:05:19;63.90;;;37.17;;
25824;SDS011;13658;44.534;18.694;2023-04-06T06:07:46;66.80;;;37.22;;
25824;SDS011;13658;44.534;18.694;2023-04-06T06:10:12;61.55;;;35.80;;
25824;SDS011;13658;44.534;18.694;2023-04-06T06:12:39;65.70;;;35.33;;
25824;SDS011;13658;44.534;18.694;2023-04-06T06:15:06;57.97;;;33.85;;
25824;SDS011;13658;44.534;18.694;2023-04-06T06:17:36;69.85;;;40.10;;
25824;SDS011;13658;44.534;18.694;2023-04-06T06:20:05;62.17;;;35.63;;
25824;SDS011;13658;44.534;18.694;2023-04-06T06:22:32;64.28;;;37.10;;
25824;SDS011;13658;44.534;18.694;2023-04-06T06:24:58;62.67;;;37.78;;
25824;SDS011;13658;44.534;18.694;2023-04-06T06:27:24;64.35;;;38.47;;
25824;SDS011;13658;44.534;18.694;2023-04-06T06:29:51;55.58;;;33.38;;
25824;SDS011;13658;44.534;18.694;2023-04-06T06:32:17;64.43;;;39.40;;
25824;SDS011;13658;44.534;18.694;2023-04-06T06:34:47;73.15;;;41.40;;
25824;SDS011;13658;44.534;18.694;2023-04-06T06:37:13;74.32;;;43.83;;
25824;SDS011;13658;44.534;18.694;2023-04-06T06:39:40;73.60;;;41.65;;
25824;SDS011;13658;44.534;18.694;2023-04-06T06:42:05;63.72;;;42.30;;
25824;SDS011;13658;44.534;18.694;2023-04-06T06:45:07;55.28;;;30.10;;
25824;SDS011;13658;44.534;18.694;2023-04-06T06:47:34;50.63;;;31.50;;
25824;SDS011;13658;44.534;18.694;2023-04-06T06:50:00;48.35;;;28.85;;
25824;SDS011;13658;44.534;18.694;2023-04-06T06:52:28;47.42;;;29.38;;
25824;SDS011;13658;44.534;18.694;2023-04-06T06:54:54;49.45;;;29.70;;
25824;SDS011;13658;44.534;18.694;2023-04-06T06:57:21;42.63;;;28.15;;
25824;SDS011;13658;44.534;18.694;2023-04-06T06:59:48;41.38;;;25.80;;
25824;SDS011;13658;44.534;18.694;2023-04-06T07:02:14;38.95;;;26.70;;
25824;SDS011;13658;44.534;18.694;2023-04-06T07:04:40;33.88;;;23.52;;
25824;SDS011;13658;44.534;18.694;2023-04-06T07:07:06;32.92;;;22.50;;
25824;SDS011;13658;44.534;18.694;2023-04-06T07:09:33;36.70;;;23.48;;
25824;SDS011;13658;44.534;18.694;2023-04-06T07:12:00;36.95;;;25.23;;
25824;SDS011;13658;44.534;18.694;2023-04-06T07:14:27;36.05;;;23.65;;
25824;SDS011;13658;44.534;18.694;2023-04-06T07:16:53;37.90;;;24.70;;
25824;SDS011;13658;44.534;18.694;2023-04-06T07:19:20;34.35;;;25.05;;
25824;SDS011;13658;44.534;18.694;2023-04-06T07:21:46;32.15;;;21.52;;
25824;SDS011;13658;44.534;18.694;2023-04-06T07:24:14;31.58;;;22.23;;
25824;SDS011;13658;44.534;18.694;2023-04-06T07:26:41;35.78;;;22.83;;
25824;SDS011;13658;44.534;18.694;2023-04-06T07:29:08;32.58;;;21.65;;
25824;SDS011;13658;44.534;18.694;2023-04-06T07:31:34;29.25;;;20.08;;
25824;SDS011;13658;44.534;18.694;2023-04-06T07:34:02;31.95;;;20.75;;
25824;SDS011;13658;44.534;18.694;2023-04-06T07:36:28;33.38;;;20.17;;
25824;SDS011;13658;44.534;18.694;2023-04-06T07:38:54;27.77;;;19.98;;
25824;SDS011;13658;44.534;18.694;2023-04-06T07:41:22;29.73;;;20.58;;
25824;SDS011;13658;44.534;18.694;2023-04-06T07:43:49;32.22;;;21.65;;
25824;SDS011;13658;44.534;18.694;2023-04-06T07:46:16;26.02;;;18.58;;
25824;SDS011;13658;44.534;18.694;2023-04-06T07:48:42;24.90;;;18.92;;
25824;SDS011;13658;44.534;18.694;2023-04-06T07:51:08;26.63;;;18.95;;
25824;SDS011;13658;44.534;18.694;2023-04-06T07:53:40;30.63;;;22.27;;
25824;SDS011;13658;44.534;18.694;2023-04-06T07:56:06;24.88;;;17.80;;
25824;SDS011;13658;44.534;18.694;2023-04-06T07:58:32;27.80;;;18.27;;
25824;SDS011;13658;44.534;18.694;2023-04-06T08:00:58;28.67;;;18.27;;
25824;SDS011;13658;44.534;18.694;2023-04-06T08:03:24;29.95;;;19.10;;
25824;SDS011;13658;44.534;18.694;2023-04-06T08:05:51;30.48;;;20.17;;
25824;SDS011;13658;44.534;18.694;2023-04-06T08:08:18;27.00;;;19.60;;
25824;SDS011;13658;44.534;18.694;2023-04-06T08:10:44;31.80;;;20.58;;
25824;SDS011;13658;44.534;18.694;2023-04-06T08:13:11;28.17;;;19.08;;
25824;SDS011;13658;44.534;18.694;2023-04-06T08:15:36;26.70;;;18.65;;
25824;SDS011;13658;44.534;18.694;2023-04-06T08:18:03;31.40;;;21.27;;
25824;SDS011;13658;44.534;18.694;2023-04-06T08:20:28;25.05;;;17.55;;
25824;SDS011;13658;44.534;18.694;2023-04-06T08:22:55;24.52;;;17.30;;
25824;SDS011;13658;44.534;18.694;2023-04-06T08:25:21;25.58;;;17.20;;
25824;SDS011;13658;44.534;18.694;2023-04-06T08:27:46;22.38;;;14.38;;
25824;SDS011;13658;44.534;18.694;2023-04-06T08:30:12;21.50;;;14.77;;
25824;SDS011;13658;44.534;18.694;2023-04-06T08:32:40;21.88;;;14.40;;
25824;SDS011;13658;44.534;18.694;2023-04-06T08:35:07;29.35;;;17.10;;
25824;SDS011;13658;44.534;18.694;2023-04-06T08:37:33;18.85;;;13.32;;
25824;SDS011;13658;44.534;18.694;2023-04-06T08:39:59;20.67;;;13.27;;
25824;SDS011;13658;44.534;18.694;2023-04-06T08:42:25;16.63;;;10.85;;
25824;SDS011;13658;44.534;18.694;2023-04-06T08:44:54;16.55;;;10.43;;
25824;SDS011;13658;44.534;18.694;2023-04-06T08:47:21;14.35;;;9.45;;
25824;SDS011;13658;44.534;18.694;2023-04-06T08:49:47;14.77;;;9.05;;
25824;SDS011;13658;44.534;18.694;2023-04-06T08:52:15;13.07;;;8.63;;
25824;SDS011;13658;44.534;18.694;2023-04-06T08:54:44;15.32;;;10.52;;
25824;SDS011;13658;44.534;18.694;2023-04-06T08:57:10;18.23;;;13.43;;
25824;SDS011;13658;44.534;18.694;2023-04-06T08:59:36;15.77;;;10.13;;
25824;SDS011;13658;44.534;18.694;2023-04-06T09:02:03;13.20;;;9.35;;
25824;SDS011;13658;44.534;18.694;2023-04-06T09:04:32;14.25;;;10.07;;
25824;SDS011;13658;44.534;18.694;2023-04-06T09:07:00;15.98;;;9.60;;
25824;SDS011;13658;44.534;18.694;2023-04-06T09:09:29;17.50;;;11.57;;
25824;SDS011;13658;44.534;18.694;2023-04-06T09:11:55;14.20;;;9.75;;
25824;SDS011;13658;44.534;18.694;2023-04-06T09:14:36;16.05;;;11.02;;
25824;SDS011;13658;44.534;18.694;2023-04-06T09:17:03;14.25;;;9.32;;
25824;SDS011;13658;44.534;18.694;2023-04-06T09:19:30;17.25;;;11.52;;
25824;SDS011;13658;44.534;18.694;2023-04-06T09:22:05;13.90;;;9.07;;
25824;SDS011;13658;44.534;18.694;2023-04-06T09:24:47;14.00;;;9.50;;
25824;SDS011;13658;44.534;18.694;2023-04-06T09:27:17;16.63;;;10.63;;
25824;SDS011;13658;44.534;18.694;2023-04-06T09:30:02;12.50;;;8.27;;
25824;SDS011;13658;44.534;18.694;2023-04-06T09:32:32;16.73;;;12.25;;
25824;SDS011;13658;44.534;18.694;2023-04-06T09:35:10;11.73;;;8.57;;
25824;SDS011;13658;44.534;18.694;2023-04-06T09:37:36;9.60;;;7.38;;
25824;SDS011;13658;44.534;18.694;2023-04-06T09:40:02;12.52;;;8.63;;
25824;SDS011;13658;44.534;18.694;2023-04-06T09:42:29;13.38;;;9.25;;
25824;SDS011;13658;44.534;18.694;2023-04-06T09:44:55;16.08;;;10.27;;
25824;SDS011;13658;44.534;18.694;2023-04-06T09:47:21;14.48;;;10.70;;
25824;SDS011;13658;44.534;18.694;2023-04-06T09:49:54;13.90;;;10.60;;
25824;SDS011;13658;44.534;18.694;2023-04-06T09:52:26;13.57;;;9.90;;
25824;SDS011;13658;44.534;18.694;2023-04-06T09:54:59;16.52;;;10.07;;
25824;SDS011;13658;44.534;18.694;2023-04-06T10:00:11;17.20;;;10.23;;
25824;SDS011;13658;44.534;18.694;2023-04-06T10:05:39;13.60;;;10.15;;
25824;SDS011;13658;44.534;18.694;2023-04-06T10:08:10;12.00;;;9.43;;
25824;SDS011;13658;44.534;18.694;2023-04-06T10:10:37;16.20;;;11.35;;
25824;SDS011;13658;44.534;18.694;2023-04-06T10:13:03;13.25;;;9.80;;
25824;SDS011;13658;44.534;18.694;2023-04-06T10:15:30;12.57;;;8.10;;
25824;SDS011;13658;44.534;18.694;2023-04-06T10:17:59;13.23;;;9.25;;
25824;SDS011;13658;44.534;18.694;2023-04-06T10:20:33;14.20;;;9.48;;
25824;SDS011;13658;44.534;18.694;2023-04-06T10:23:03;11.45;;;8.45;;
25824;SDS011;13658;44.534;18.694;2023-04-06T10:25:34;11.82;;;8.48;;
25824;SDS011;13658;44.534;18.694;2023-04-06T10:28:09;10.90;;;7.97;;
25824;SDS011;13658;44.534;18.694;2023-04-06T10:30:43;16.42;;;10.13;;
25824;SDS011;13658;44.534;18.694;2023-04-06T10:33:16;15.13;;;8.25;;
25824;SDS011;13658;44.534;18.694;2023-04-06T10:35:43;13.77;;;9.48;;
25824;SDS011;13658;44.534;18.694;2023-04-06T10:38:09;13.73;;;9.32;;
25824;SDS011;13658;44.534;18.694;2023-04-06T10:40:38;11.85;;;9.45;;
25824;SDS011;13658;44.534;18.694;2023-04-06T10:43:09;17.20;;;10.77;;
25824;SDS011;13658;44.534;18.694;2023-04-06T10:45:55;16.63;;;10.57;;
25824;SDS011;13658;44.534;18.694;2023-04-06T10:48:23;13.07;;;9.48;;
25824;SDS011;13658;44.534;18.694;2023-04-06T10:50:52;13.25;;;8.38;;
25824;SDS011;13658;44.534;18.694;2023-04-06T10:53:22;15.10;;;9.30;;
25824;SDS011;13658;44.534;18.694;2023-04-06T10:55:52;13.23;;;9.13;;
25824;SDS011;13658;44.534;18.694;2023-04-06T10:58:25;14.52;;;10.35;;
25824;SDS011;13658;44.534;18.694;2023-04-06T11:00:52;17.02;;;10.43;;
25824;SDS011;13658;44.534;18.694;2023-04-06T11:03:20;14.52;;;8.95;;
25824;SDS011;13658;44.534;18.694;2023-04-06T11:05:48;23.80;;;12.95;;
25824;SDS011;13658;44.534;18.694;2023-04-06T11:08:22;12.85;;;8.13;;
25824;SDS011;13658;44.534;18.694;2023-04-06T11:10:50;12.93;;;7.75;;
25824;SDS011;13658;44.534;18.694;2023-04-06T11:13:16;14.60;;;8.15;;
25824;SDS011;13658;44.534;18.694;2023-04-06T11:15:42;10.48;;;7.63;;
25824;SDS011;13658;44.534;18.694;2023-04-06T11:18:08;12.48;;;8.13;;
25824;SDS011;13658;44.534;18.694;2023-04-06T11:20:36;12.63;;;8.07;;
25824;SDS011;13658;44.534;18.694;2023-04-06T11:23:02;14.38;;;9.50;;
25824;SDS011;13658;44.534;18.694;2023-04-06T11:25:28;14.85;;;9.57;;
25824;SDS011;13658;44.534;18.694;2023-04-06T11:27:57;12.95;;;7.60;;
25824;SDS011;13658;44.534;18.694;2023-04-06T11:30:23;12.20;;;7.63;;
25824;SDS011;13658;44.534;18.694;2023-04-06T11:32:50;10.77;;;7.15;;
25824;SDS011;13658;44.534;18.694;2023-04-06T11:35:20;10.48;;;7.32;;
25824;SDS011;13658;44.534;18.694;2023-04-06T11:37:49;14.80;;;9.00;;
25824;SDS011;13658;44.534;18.694;2023-04-06T11:40:15;13.55;;;7.90;;
25824;SDS011;13658;44.534;18.694;2023-04-06T11:42:51;13.75;;;8.43;;
25824;SDS011;13658;44.534;18.694;2023-04-06T11:45:21;16.55;;;10.02;;
25824;SDS011;13658;44.534;18.694;2023-04-06T11:47:57;15.57;;;9.15;;
25824;SDS011;13658;44.534;18.694;2023-04-06T11:50:25;15.30;;;9.30;;
25824;SDS011;13658;44.534;18.694;2023-04-06T11:52:59;13.00;;;7.68;;
25824;SDS011;13658;44.534;18.694;2023-04-06T11:55:26;13.55;;;8.30;;
25824;SDS011;13658;44.534;18.694;2023-04-06T11:57:52;14.35;;;6.85;;
25824;SDS011;13658;44.534;18.694;2023-04-06T12:00:18;14.38;;;8.32;;
25824;SDS011;13658;44.534;18.694;2023-04-06T12:02:46;17.13;;;8.45;;
25824;SDS011;13658;44.534;18.694;2023-04-06T12:05:13;13.20;;;8.60;;
25824;SDS011;13658;44.534;18.694;2023-04-06T12:07:39;15.32;;;9.85;;
25824;SDS011;13658;44.534;18.694;2023-04-06T12:10:05;14.55;;;8.00;;
25824;SDS011;13658;44.534;18.694;2023-04-06T12:12:32;14.90;;;8.95;;
25824;SDS011;13658;44.534;18.694;2023-04-06T12:14:58;13.20;;;9.25;;
25824;SDS011;13658;44.534;18.694;2023-04-06T12:17:25;15.63;;;8.98;;
25824;SDS011;13658;44.534;18.694;2023-04-06T12:19:51;13.80;;;8.90;;
25824;SDS011;13658;44.534;18.694;2023-04-06T12:22:17;14.95;;;9.50;;
25824;SDS011;13658;44.534;18.694;2023-04-06T12:24:44;11.90;;;8.35;;
25824;SDS011;13658;44.534;18.694;2023-04-06T12:27:10;16.10;;;9.65;;
25824;SDS011;13658;44.534;18.694;2023-04-06T12:29:37;14.82;;;9.02;;
25824;SDS011;13658;44.534;18.694;2023-04-06T12:32:03;16.13;;;8.38;;
25824;SDS011;13658;44.534;18.694;2023-04-06T12:34:30;12.85;;;7.22;;
25824;SDS011;13658;44.534;18.694;2023-04-06T12:36:56;11.27;;;6.95;;
25824;SDS011;13658;44.534;18.694;2023-04-06T12:39:22;14.63;;;8.00;;
25824;SDS011;13658;44.534;18.694;2023-04-06T12:41:48;14.35;;;8.07;;
25824;SDS011;13658;44.534;18.694;2023-04-06T12:44:15;14.15;;;7.53;;
25824;SDS011;13658;44.534;18.694;2023-04-06T12:46:41;13.15;;;8.00;;
25824;SDS011;13658;44.534;18.694;2023-04-06T12:49:08;9.52;;;6.90;;
25824;SDS011;13658;44.534;18.694;2023-04-06T12:51:35;11.63;;;6.75;;
25824;SDS011;13658;44.534;18.694;2023-04-06T12:54:01;11.02;;;6.25;;
25824;SDS011;13658;44.534;18.694;2023-04-06T12:56:27;9.98;;;6.05;;
25824;SDS011;13658;44.534;18.694;2023-04-06T12:58:53;9.20;;;6.35;;
25824;SDS011;13658;44.534;18.694;2023-04-06T13:01:19;11.48;;;6.32;;
25824;SDS011;13658;44.534;18.694;2023-04-06T13:03:46;9.73;;;6.07;;
25824;SDS011;13658;44.534;18.694;2023-04-06T13:06:12;9.20;;;5.28;;
25824;SDS011;13658;44.534;18.694;2023-04-06T13:08:39;11.57;;;6.93;;
25824;SDS011;13658;44.534;18.694;2023-04-06T13:11:06;9.90;;;6.20;;
25824;SDS011;13658;44.534;18.694;2023-04-06T13:13:35;8.98;;;6.22;;
25824;SDS011;13658;44.534;18.694;2023-04-06T13:16:05;10.43;;;6.20;;
25824;SDS011;13658;44.534;18.694;2023-04-06T13:18:34;8.68;;;5.82;;
25824;SDS011;13658;44.534;18.694;2023-04-06T13:21:04;31.85;;;11.65;;
25824;SDS011;13658;44.534;18.694;2023-04-06T13:23:31;12.35;;;6.22;;
25824;SDS011;13658;44.534;18.694;2023-04-06T13:26:06;10.55;;;6.30;;
25824;SDS011;13658;44.534;18.694;2023-04-06T13:28:34;16.13;;;8.13;;
25824;SDS011;13658;44.534;18.694;2023-04-06T13:31:02;8.52;;;5.80;;
25824;SDS011;13658;44.534;18.694;2023-04-06T13:33:29;9.13;;;5.43;;
25824;SDS011;13658;44.534;18.694;2023-04-06T13:35:56;11.18;;;6.20;;
25824;SDS011;13658;44.534;18.694;2023-04-06T13:38:22;9.13;;;5.78;;
25824;SDS011;13658;44.534;18.694;2023-04-06T13:40:51;9.15;;;5.72;;
25824;SDS011;13658;44.534;18.694;2023-04-06T13:43:17;10.20;;;6.03;;
25824;SDS011;13658;44.534;18.694;2023-04-06T13:45:51;7.47;;;5.25;;
25824;SDS011;13658;44.534;18.694;2023-04-06T13:48:23;9.05;;;5.45;;
25824;SDS011;13658;44.534;18.694;2023-04-06T13:50:50;9.63;;;6.57;;
25824;SDS011;13658;44.534;18.694;2023-04-06T13:53:16;11.77;;;6.93;;
25824;SDS011;13658;44.534;18.694;2023-04-06T13:55:43;11.95;;;7.25;;
25824;SDS011;13658;44.534;18.694;2023-04-06T13:58:09;13.85;;;7.47;;
25824;SDS011;13658;44.534;18.694;2023-04-06T14:00:35;12.30;;;6.55;;
25824;SDS011;13658;44.534;18.694;2023-04-06T14:03:02;10.63;;;5.43;;
25824;SDS011;13658;44.534;18.694;2023-04-06T14:05:31;9.15;;;5.50;;
25824;SDS011;13658;44.534;18.694;2023-04-06T14:07:58;10.70;;;6.35;;
25824;SDS011;13658;44.534;18.694;2023-04-06T14:10:23;13.75;;;6.50;;
25824;SDS011;13658;44.534;18.694;2023-04-06T14:12:52;8.32;;;5.13;;
25824;SDS011;13658;44.534;18.694;2023-04-06T14:15:18;10.40;;;6.93;;
25824;SDS011;13658;44.534;18.694;2023-04-06T14:17:46;8.23;;;5.28;;
25824;SDS011;13658;44.534;18.694;2023-04-06T14:20:12;9.15;;;4.97;;
25824;SDS011;13658;44.534;18.694;2023-04-06T14:22:43;7.32;;;5.05;;
25824;SDS011;13658;44.534;18.694;2023-04-06T14:25:09;7.35;;;5.10;;
25824;SDS011;13658;44.534;18.694;2023-04-06T14:27:38;10.05;;;6.15;;